Ana Sayfa
METAR-TAF:

METAR-TAF

Havaalanları :

Geraldton, Avustralya

Enlem: 28-47-46S, Boylam: 114-42-27E, yükseklik: 37 m

Güncel hava durumu gözlemi

Rapor saat 05:00 UTC de 22 dakika önce yapıldı.
Rüzgar doğudan 9 kt
Sıcaklık 20°C
Nem 43%
Basınç 1022 hPa
Görüş mesafesi 10 km veya daha fazla
1500 m altında bulut yok ve kümülonimbus yok

METAR: YGEL 180500Z 09009KT CAVOK 20/07 Q1022

Saat: 13:22 (05:22 UTC)

Tahmin

Rapor saat 22:17 UTC de 7 saat ve 5 dakika önce yapıldı.
Ayın 18'si saat 00 UTC'den ayın 18'si saat 18 UTC'ye kadar geçerli Tahmin
Rüzgar doğudan 14 kt
Görüş mesafesi 10 km veya daha fazla
1500 m altında bulut yok ve kümülonimbus yok
Ayın 18'si saat 0900 UTC'den
Rüzgar doğu/güneydoğudan 8 kt
Görüş mesafesi 10 km veya daha fazla
1500 m altında bulut yok ve kümülonimbus yok

TAF: YGEL 172217Z 1800/1818 08014KT CAVOK FM180900 12008KT CAVOK

4.000'den fazla havaalanı için hava durumu gözlemleri ve tahminleri (METAR ve TAF raporları).

Kullanılabilir istasyonlar harita üzerinde sarı ve kırmızı noktalarla gösterilir.

İstasyonun adını görmek için fareyi noktanın üzerinde gezdirin.

Sonrasında hava gözlem ve tahminlerini görmek için tıklayın.

Haritayı değiştirmek için: yaklaştırmak için siyah artı işaretli yeşil düğmeye ve uzaklaştırmak için de eksi işaretli düğmeye hızla tıklayın; bitişik haritalar için yeşil okları kullanın.


METAR-TAF: